createdAt,value
2018-01-12T00:00:13.797Z,17.70
2018-01-12T00:02:41.245Z,17.50
2018-01-12T00:05:08.866Z,17.67
2018-01-12T00:07:36.316Z,16.70
2018-01-12T00:10:03.772Z,17.52
2018-01-12T00:12:31.222Z,18.73
2018-01-12T00:14:58.689Z,19.83
2018-01-12T00:17:26.242Z,17.50
2018-01-12T00:19:53.679Z,18.60
2018-01-12T00:22:21.117Z,18.35
2018-01-12T00:24:49.535Z,17.95
2018-01-12T00:27:17.085Z,18.42
2018-01-12T00:29:44.521Z,21.23
2018-01-12T00:32:11.964Z,19.00
2018-01-12T00:34:39.466Z,19.60
2018-01-12T00:37:06.906Z,19.48
2018-01-12T00:39:34.348Z,20.45
2018-01-12T00:42:01.774Z,20.10
2018-01-12T00:44:29.969Z,20.02
2018-01-12T00:46:57.406Z,18.67
2018-01-12T00:49:25.609Z,21.67
2018-01-12T00:51:53.030Z,20.35
2018-01-12T00:54:21.234Z,21.62
2018-01-12T00:56:48.669Z,22.45
2018-01-12T00:59:16.106Z,19.63
2018-01-12T01:01:44.307Z,21.20
2018-01-12T01:04:11.738Z,21.55
2018-01-12T01:06:39.930Z,20.65
2018-01-12T01:09:07.421Z,19.25
2018-01-12T01:11:34.862Z,19.37
2018-01-12T01:14:02.347Z,18.30
2018-01-12T01:16:29.797Z,19.87
2018-01-12T01:18:57.245Z,20.33
2018-01-12T01:21:24.689Z,21.42
2018-01-12T01:23:52.262Z,20.20
2018-01-12T01:26:19.693Z,20.75
2018-01-12T01:28:47.140Z,20.10
2018-01-12T01:31:14.594Z,19.90
2018-01-12T01:33:42.037Z,18.10
2018-01-12T01:36:10.241Z,18.67
2018-01-12T01:38:37.717Z,19.43
2018-01-12T01:41:05.159Z,17.00
2018-01-12T01:43:32.625Z,18.90
2018-01-12T01:46:00.073Z,18.73
2018-01-12T01:48:39.367Z,18.70
2018-01-12T01:51:07.592Z,19.37
2018-01-12T01:53:35.022Z,18.90
2018-01-12T01:56:02.502Z,17.90
2018-01-12T01:58:29.965Z,18.52
2018-01-12T02:00:57.418Z,19.02
2018-01-12T02:03:24.846Z,18.98
2018-01-12T02:05:52.283Z,18.77
2018-01-12T02:08:20.482Z,19.55
2018-01-12T02:10:47.965Z,19.05
2018-01-12T02:13:15.398Z,19.60
2018-01-12T02:15:42.896Z,22.77
2018-01-12T02:18:10.331Z,22.58
2018-01-12T02:20:37.774Z,23.05
2018-01-12T02:23:05.213Z,23.10
2018-01-12T02:25:32.705Z,23.10
2018-01-12T02:28:00.168Z,19.87
2018-01-12T02:30:27.622Z,18.62
2018-01-12T02:32:55.077Z,18.80
2018-01-12T02:35:22.523Z,19.77
2018-01-12T02:37:49.963Z,19.45
2018-01-12T02:40:17.446Z,18.27
2018-01-12T02:42:44.879Z,18.50
2018-01-12T02:45:12.357Z,18.42
2018-01-12T02:47:39.793Z,19.25
2018-01-12T02:50:07.285Z,18.55
2018-01-12T02:52:35.541Z,17.00
2018-01-12T02:55:02.987Z,17.55
2018-01-12T02:57:30.455Z,16.12
2018-01-12T02:59:57.910Z,16.20
2018-01-12T03:02:25.346Z,15.45
2018-01-12T03:04:52.775Z,16.35
2018-01-12T03:07:20.215Z,15.20
2018-01-12T03:09:47.738Z,15.60
2018-01-12T03:12:15.174Z,16.60
2018-01-12T03:14:42.599Z,17.30
2018-01-12T03:17:10.801Z,17.48
2018-01-12T03:19:38.233Z,17.30
2018-01-12T03:22:05.679Z,19.75
2018-01-12T03:24:33.892Z,18.92
2018-01-12T03:27:01.325Z,18.48
2018-01-12T03:29:28.879Z,19.80
2018-01-12T03:31:56.381Z,18.35
2018-01-12T03:34:23.830Z,20.77
2018-01-12T03:36:51.280Z,19.25
2018-01-12T03:39:18.737Z,21.08
2018-01-12T03:41:46.253Z,20.92
2018-01-12T03:44:13.654Z,24.25
2018-01-12T03:46:41.122Z,20.83
2018-01-12T03:49:08.568Z,23.75
2018-01-12T03:51:36.112Z,27.37
2018-01-12T03:54:03.601Z,26.40
2018-01-12T03:56:31.043Z,27.33
2018-01-12T03:58:58.482Z,29.58
2018-01-12T04:01:25.978Z,29.10
2018-01-12T04:03:53.422Z,29.25
2018-01-12T04:06:20.881Z,29.77
2018-01-12T04:08:48.334Z,29.45
2018-01-12T04:11:15.790Z,31.98
2018-01-12T04:13:43.246Z,36.63
2018-01-12T04:16:10.806Z,35.55
2018-01-12T04:18:38.233Z,40.80
2018-01-12T04:21:05.670Z,40.63
2018-01-12T04:23:33.874Z,39.17
2018-01-12T04:26:01.362Z,34.58
2018-01-12T04:28:28.794Z,36.83
2018-01-12T04:30:56.268Z,43.20
2018-01-12T04:33:23.706Z,40.40
2018-01-12T04:35:51.153Z,42.13
2018-01-12T04:38:18.646Z,44.60
2018-01-12T04:40:46.202Z,39.80
2018-01-12T04:43:13.658Z,40.28
2018-01-12T04:45:41.213Z,40.38
2018-01-12T04:48:08.638Z,42.53
2018-01-12T04:50:36.236Z,40.35
2018-01-12T04:53:03.682Z,44.65
2018-01-12T04:55:31.114Z,44.55
2018-01-12T04:57:58.555Z,42.80
2018-01-12T05:00:26.000Z,41.83
2018-01-12T05:02:54.216Z,47.08
2018-01-12T05:05:21.691Z,45.25
2018-01-12T05:07:49.130Z,47.50
2018-01-12T05:10:16.695Z,47.78
2018-01-12T05:12:44.130Z,54.67
2018-01-12T05:15:11.608Z,45.83
2018-01-12T05:17:39.067Z,49.78
2018-01-12T05:20:06.499Z,52.20
2018-01-12T05:22:33.979Z,49.45
2018-01-12T05:25:01.414Z,49.90
2018-01-12T05:27:28.893Z,51.40
2018-01-12T05:29:56.329Z,55.15
2018-01-12T05:32:23.769Z,52.70
2018-01-12T05:34:51.213Z,49.25
2018-01-12T05:37:19.414Z,52.40
2018-01-12T05:39:46.850Z,52.08
2018-01-12T05:42:14.289Z,56.30
2018-01-12T05:44:42.522Z,53.37
2018-01-12T05:47:09.958Z,54.17
2018-01-12T05:49:37.433Z,52.22
2018-01-12T05:52:04.869Z,54.22
2018-01-12T05:54:32.293Z,58.58
2018-01-12T05:57:00.522Z,54.60
2018-01-12T05:59:27.974Z,62.70
2018-01-12T06:02:07.323Z,57.58
2018-01-12T06:04:46.724Z,58.35
2018-01-12T06:07:14.168Z,61.60
2018-01-12T06:09:41.610Z,64.28
2018-01-12T06:12:09.810Z,64.18
2018-01-12T06:14:37.301Z,60.40
2018-01-12T06:17:04.746Z,57.95
2018-01-12T06:19:32.183Z,64.12
2018-01-12T06:21:59.620Z,59.00
2018-01-12T06:24:27.118Z,58.00
2018-01-12T06:26:54.565Z,55.75
2018-01-12T06:29:22.012Z,65.72
2018-01-12T06:31:49.458Z,59.22
2018-01-12T06:34:16.949Z,56.40
2018-01-12T06:36:44.467Z,63.97
2018-01-12T06:39:11.903Z,59.60
2018-01-12T06:41:40.105Z,52.17
2018-01-12T06:44:07.606Z,54.28
2018-01-12T06:46:35.028Z,52.70
2018-01-12T06:49:02.474Z,62.33
2018-01-12T06:51:29.957Z,57.15
2018-01-12T06:53:57.398Z,59.90
2018-01-12T06:56:24.881Z,55.53
2018-01-12T06:58:52.414Z,59.03
2018-01-12T07:01:19.893Z,55.13
2018-01-12T07:03:47.531Z,57.60
2018-01-12T07:06:14.991Z,57.20
2018-01-12T07:08:42.490Z,55.47
2018-01-12T07:11:09.929Z,55.50
2018-01-12T07:13:37.389Z,57.20
2018-01-12T07:16:04.948Z,60.90
2018-01-12T07:18:32.393Z,57.70
2018-01-12T07:21:11.836Z,57.83
2018-01-12T07:23:46.054Z,61.33
2018-01-12T07:26:13.482Z,63.58
2018-01-12T07:28:40.936Z,59.13
2018-01-12T07:31:08.418Z,59.53
2018-01-12T07:33:35.853Z,62.53
2018-01-12T07:36:03.309Z,63.15
2018-01-12T07:38:30.798Z,65.62
2018-01-12T07:40:58.338Z,70.72
2018-01-12T07:43:25.813Z,68.03
2018-01-12T07:45:53.280Z,78.68
2018-01-12T07:48:20.777Z,67.25
2018-01-12T07:50:48.282Z,75.40
2018-01-12T07:53:21.742Z,71.10
2018-01-12T07:55:49.228Z,77.62
2018-01-12T07:58:16.677Z,73.50
2018-01-12T08:00:49.809Z,80.15
2018-01-12T08:03:17.252Z,76.40
2018-01-12T08:05:44.689Z,75.37
2018-01-12T08:08:12.121Z,74.78
2018-01-12T08:10:39.602Z,73.23
2018-01-12T08:13:07.072Z,87.00
2018-01-12T08:15:34.518Z,68.15
2018-01-12T08:18:01.957Z,79.45
2018-01-12T08:20:29.410Z,70.40
2018-01-12T08:22:56.845Z,79.25
2018-01-12T08:25:24.302Z,73.47
2018-01-12T08:27:51.812Z,78.83
2018-01-12T08:30:19.253Z,71.70
2018-01-12T08:32:46.721Z,78.25
2018-01-12T08:35:14.165Z,78.53
2018-01-12T08:37:41.624Z,68.53
2018-01-12T08:40:09.066Z,75.47
2018-01-12T08:42:36.505Z,72.93
2018-01-12T08:45:03.937Z,71.93
2018-01-12T08:47:32.137Z,80.23
2018-01-12T08:49:59.582Z,77.32
2018-01-12T08:52:27.134Z,76.47
2018-01-12T08:54:54.567Z,78.62
2018-01-12T08:57:22.782Z,78.85
2018-01-12T08:59:50.262Z,78.93
2018-01-12T09:02:17.701Z,77.47
2018-01-12T09:04:45.135Z,76.68
2018-01-12T09:07:12.608Z,80.55
2018-01-12T09:09:40.026Z,78.62
2018-01-12T09:12:08.234Z,86.37
2018-01-12T09:14:50.344Z,82.97
2018-01-12T09:17:29.753Z,82.27
2018-01-12T09:20:09.057Z,76.67
2018-01-12T09:22:45.277Z,80.25
2018-01-12T09:25:25.345Z,78.53
2018-01-12T09:27:52.793Z,75.78
2018-01-12T09:30:20.245Z,73.72
2018-01-12T09:32:49.505Z,80.05
2018-01-12T09:35:17.048Z,79.07
2018-01-12T09:37:44.481Z,79.37
2018-01-12T09:43:15.205Z,77.90
2018-01-12T09:45:42.642Z,78.57
2018-01-12T09:48:22.124Z,81.40
2018-01-12T09:50:49.564Z,74.28
2018-01-12T09:53:17.006Z,73.57
2018-01-12T09:55:44.442Z,71.60
2018-01-12T09:58:11.900Z,71.90
2018-01-12T10:00:40.300Z,73.68
2018-01-12T10:03:07.829Z,69.18
2018-01-12T10:05:35.401Z,71.62
2018-01-12T10:08:05.565Z,70.97
2018-01-12T10:10:33.011Z,69.35
2018-01-12T10:13:00.477Z,64.37
2018-01-12T10:15:28.014Z,69.47
2018-01-12T10:17:56.589Z,66.90
2018-01-12T10:20:38.953Z,65.87
2018-01-12T10:23:06.663Z,66.82
2018-01-12T10:25:34.106Z,69.53
2018-01-12T10:28:01.525Z,66.15
2018-01-12T10:31:03.361Z,63.03
2018-01-12T10:36:39.269Z,66.50
2018-01-12T10:39:20.379Z,62.20
2018-01-12T10:41:59.702Z,69.37
2018-01-12T10:44:27.175Z,69.50
2018-01-12T10:47:06.818Z,63.47
2018-01-12T10:49:34.462Z,61.30
2018-01-12T10:52:10.185Z,62.35
2018-01-12T10:54:38.447Z,60.70
2018-01-12T10:57:05.977Z,66.18
2018-01-12T10:59:33.441Z,64.30
2018-01-12T11:02:00.886Z,67.37
2018-01-12T11:04:28.328Z,64.62
2018-01-12T11:06:55.765Z,67.20
2018-01-12T11:09:23.429Z,63.80
2018-01-12T11:11:50.890Z,62.62
2018-01-12T11:14:18.363Z,60.55
2018-01-12T11:16:45.806Z,62.05
2018-01-12T11:19:13.294Z,60.75
2018-01-12T11:21:40.746Z,61.60
2018-01-12T11:24:08.202Z,62.90
2018-01-12T11:26:35.685Z,61.28
2018-01-12T11:29:03.106Z,58.85
2018-01-12T11:31:30.566Z,62.75
2018-01-12T11:33:58.037Z,71.35
2018-01-12T11:36:25.490Z,72.18
2018-01-12T11:38:52.930Z,77.72
2018-01-12T11:41:20.363Z,70.75
2018-01-12T11:43:47.900Z,78.90
2018-01-12T11:46:15.310Z,74.93
2018-01-12T11:48:42.777Z,82.28
2018-01-12T11:51:10.215Z,76.45
2018-01-12T11:53:37.629Z,78.85
2018-01-12T11:56:05.879Z,76.37
2018-01-12T11:58:33.327Z,77.85
2018-01-12T12:01:00.750Z,79.15
2018-01-12T12:03:28.188Z,77.87
2018-01-12T12:05:55.650Z,76.03
2018-01-12T12:08:23.317Z,67.40
2018-01-12T12:10:50.731Z,66.20
2018-01-12T12:13:18.984Z,69.20
2018-01-12T12:15:46.540Z,63.03
2018-01-12T12:18:13.998Z,65.32
2018-01-12T12:20:41.561Z,69.82
2018-01-12T12:23:09.021Z,65.75
2018-01-12T12:25:36.449Z,65.03
2018-01-12T12:28:03.887Z,69.03
2018-01-12T12:30:31.348Z,67.97
2018-01-12T12:32:58.786Z,67.32
2018-01-12T12:35:26.218Z,59.63
2018-01-12T12:37:54.538Z,62.00
2018-01-12T12:40:21.980Z,57.35
2018-01-12T12:42:49.429Z,57.22
2018-01-12T12:45:17.038Z,54.53
2018-01-12T12:47:44.517Z,53.78
2018-01-12T12:50:11.968Z,56.65
2018-01-12T12:52:39.465Z,46.55
2018-01-12T12:55:06.950Z,57.35
2018-01-12T12:57:34.413Z,55.28
2018-01-12T13:00:01.855Z,56.88
2018-01-12T13:02:29.286Z,56.03
2018-01-12T13:04:56.781Z,53.33
2018-01-12T13:07:24.338Z,48.87
2018-01-12T13:09:51.769Z,52.35
2018-01-12T13:12:19.252Z,52.35
2018-01-12T13:14:46.703Z,52.03
2018-01-12T13:17:14.255Z,49.88
2018-01-12T13:19:41.745Z,46.43
2018-01-12T13:22:09.227Z,48.22
2018-01-12T13:24:37.446Z,45.17
2018-01-12T13:27:04.900Z,46.25
2018-01-12T13:29:33.148Z,50.92
2018-01-12T13:32:00.581Z,51.85
2018-01-12T13:34:28.039Z,48.53
2018-01-12T13:36:55.464Z,52.20
2018-01-12T13:39:22.918Z,48.95
2018-01-12T13:41:50.458Z,46.78
2018-01-12T13:44:17.889Z,50.60
2018-01-12T13:46:45.402Z,46.95
2018-01-12T13:49:12.948Z,44.85
2018-01-12T13:51:40.407Z,53.15
2018-01-12T13:54:07.846Z,49.80
2018-01-12T13:56:35.278Z,48.20
2018-01-12T13:59:02.783Z,45.67
2018-01-12T14:01:30.205Z,43.30
2018-01-12T14:03:57.649Z,44.83
2018-01-12T14:06:25.077Z,47.93
2018-01-12T14:08:53.282Z,43.35
2018-01-12T14:11:20.735Z,44.97
2018-01-12T14:13:48.171Z,43.15
2018-01-12T14:16:16.519Z,42.03
2018-01-12T14:18:43.954Z,43.45
2018-01-12T14:21:11.384Z,41.83
2018-01-12T14:23:38.821Z,44.70
2018-01-12T14:26:07.033Z,40.97
2018-01-12T14:28:34.484Z,42.62
2018-01-12T14:31:01.965Z,39.45
2018-01-12T14:33:29.432Z,37.70
2018-01-12T14:35:56.877Z,37.25
2018-01-12T14:38:24.508Z,39.10
2018-01-12T14:40:52.723Z,38.13
2018-01-12T14:43:20.169Z,38.60
2018-01-12T14:45:47.635Z,40.05
2018-01-12T14:48:15.162Z,40.12
2018-01-12T14:50:42.637Z,40.38
2018-01-12T14:53:10.083Z,36.33
2018-01-12T14:55:37.554Z,38.47
2018-01-12T14:58:05.001Z,37.35
2018-01-12T15:00:32.455Z,37.28
2018-01-12T15:02:59.915Z,37.33
2018-01-12T15:05:27.376Z,38.85
2018-01-12T15:07:54.806Z,40.83
2018-01-12T15:10:22.296Z,40.30
2018-01-12T15:12:49.751Z,39.42
2018-01-12T15:15:17.207Z,38.28
2018-01-12T15:17:44.688Z,41.97
2018-01-12T15:20:12.108Z,34.50
2018-01-12T15:22:39.594Z,34.50
2018-01-12T15:25:07.023Z,35.55
2018-01-12T15:27:34.488Z,34.10
2018-01-12T15:30:01.945Z,36.83
2018-01-12T15:32:30.491Z,35.55
2018-01-12T15:34:57.921Z,36.80
2018-01-12T15:37:26.257Z,33.50
2018-01-12T15:39:53.696Z,35.75
2018-01-12T15:42:21.329Z,32.80
2018-01-12T15:44:48.749Z,30.58
2018-01-12T15:47:16.191Z,32.78
2018-01-12T15:49:43.632Z,31.10
2018-01-12T15:52:11.118Z,33.45
2018-01-12T15:54:38.673Z,32.30
2018-01-12T15:57:06.146Z,28.48
2018-01-12T15:59:33.669Z,32.85
2018-01-12T16:02:01.140Z,32.20
2018-01-12T16:04:28.601Z,28.70
2018-01-12T16:06:56.032Z,32.08
2018-01-12T16:09:23.462Z,31.55
2018-01-12T16:11:50.897Z,34.55
2018-01-12T16:14:19.137Z,29.85
2018-01-12T16:16:46.602Z,32.25
2018-01-12T16:19:14.227Z,29.48
2018-01-12T16:21:41.701Z,28.75
2018-01-12T16:24:09.147Z,28.05
2018-01-12T16:26:36.588Z,28.20
2018-01-12T16:29:04.057Z,26.65
2018-01-12T16:31:31.469Z,24.67
2018-01-12T16:33:59.697Z,23.70
2018-01-12T16:36:27.154Z,25.90
2018-01-12T16:38:54.604Z,27.30
2018-01-12T16:41:22.078Z,28.98
2018-01-12T16:43:49.635Z,28.98
2018-01-12T16:46:17.053Z,28.02
2018-01-12T16:48:44.491Z,27.08
2018-01-12T16:51:12.696Z,31.00
2018-01-12T16:53:40.373Z,25.35
2018-01-12T16:56:07.813Z,27.45
2018-01-12T16:58:35.246Z,28.33
2018-01-12T17:01:02.745Z,30.77
2018-01-12T17:03:30.489Z,28.42
2018-01-12T17:05:57.906Z,25.77
2018-01-12T17:08:26.222Z,26.02
2018-01-12T17:10:53.703Z,25.23
2018-01-12T17:13:21.151Z,25.08
2018-01-12T17:15:48.620Z,26.30
2018-01-12T17:18:16.062Z,23.43
2018-01-12T17:20:43.521Z,25.93
2018-01-12T17:23:11.070Z,23.43
2018-01-12T17:25:38.588Z,24.65
2018-01-12T17:28:06.825Z,23.10
2018-01-12T17:30:34.785Z,23.70
2018-01-12T17:33:02.352Z,23.20
2018-01-12T17:35:29.782Z,22.20
2018-01-12T17:37:57.209Z,22.00
2018-01-12T17:40:25.443Z,23.33
2018-01-12T17:42:52.998Z,22.70
2018-01-12T17:45:20.446Z,26.20
2018-01-12T17:47:47.869Z,22.92
2018-01-12T17:50:15.317Z,23.20
2018-01-12T17:52:43.529Z,24.63
2018-01-12T17:55:11.077Z,23.67
2018-01-12T17:57:38.513Z,26.17
2018-01-12T18:00:06.195Z,24.60
2018-01-12T18:02:33.665Z,26.08
2018-01-12T18:05:01.210Z,25.27
2018-01-12T18:07:28.686Z,27.80
2018-01-12T18:09:56.210Z,23.80
2018-01-12T18:12:23.637Z,27.73
2018-01-12T18:14:51.873Z,26.80
2018-01-12T18:17:19.325Z,26.30
2018-01-12T18:19:46.985Z,25.30
2018-01-12T18:22:14.589Z,27.08
2018-01-12T18:24:42.795Z,30.48
2018-01-12T18:27:10.221Z,26.48
2018-01-12T18:29:38.462Z,25.85
2018-01-12T18:32:05.905Z,27.50
2018-01-12T18:34:33.329Z,28.80
2018-01-12T18:37:00.821Z,27.93
2018-01-12T18:39:28.270Z,26.08
2018-01-12T18:41:56.362Z,27.50
2018-01-12T18:44:23.793Z,28.20
2018-01-12T18:46:51.233Z,29.58
2018-01-12T18:49:18.709Z,26.10
2018-01-12T18:51:46.515Z,27.02
2018-01-12T18:54:13.959Z,30.73
2018-01-12T18:56:41.406Z,31.42
2018-01-12T18:59:09.614Z,28.08
2018-01-12T19:01:37.059Z,27.40
2018-01-12T19:04:04.494Z,27.23
2018-01-12T19:06:31.937Z,28.33
2018-01-12T19:08:59.380Z,26.93
2018-01-12T19:11:26.805Z,27.70
2018-01-12T19:13:54.257Z,30.43
2018-01-12T19:16:21.722Z,31.85
2018-01-12T19:18:49.254Z,32.00
2018-01-12T19:21:16.682Z,28.90
2018-01-12T19:23:44.894Z,31.37
2018-01-12T19:26:12.335Z,32.33
2018-01-12T19:28:39.777Z,31.37
2018-01-12T19:31:07.973Z,31.30
2018-01-12T19:33:35.445Z,32.17
2018-01-12T19:36:02.905Z,31.05
2018-01-12T19:38:30.341Z,33.83
2018-01-12T19:40:57.829Z,35.65
2018-01-12T19:43:25.270Z,32.33
2018-01-12T19:45:52.705Z,33.70
2018-01-12T19:48:20.270Z,32.87
2018-01-12T19:50:47.725Z,33.42
2018-01-12T19:53:15.414Z,35.63
2018-01-12T19:55:42.853Z,35.80
2018-01-12T19:58:10.285Z,34.15
2018-01-12T20:00:37.710Z,34.25
2018-01-12T20:03:05.934Z,31.95
2018-01-12T20:05:33.473Z,35.63
2018-01-12T20:08:00.909Z,34.63
2018-01-12T20:10:29.153Z,36.22
2018-01-12T20:12:56.602Z,33.53
2018-01-12T20:15:24.061Z,34.20
2018-01-12T20:17:51.534Z,34.58
2018-01-12T20:20:19.065Z,34.50
2018-01-12T20:22:46.501Z,33.00
2018-01-12T20:25:13.970Z,37.38
2018-01-12T20:27:42.265Z,36.28
2018-01-12T20:30:09.722Z,34.92
2018-01-12T20:32:37.187Z,33.85
2018-01-12T20:35:04.622Z,34.80
2018-01-12T20:37:32.061Z,32.50
2018-01-12T20:39:59.489Z,37.28
2018-01-12T20:42:26.914Z,33.80
2018-01-12T20:44:54.390Z,34.67
2018-01-12T20:47:21.809Z,35.97
2018-01-12T20:49:49.249Z,35.85
2018-01-12T20:52:16.713Z,34.13
2018-01-12T20:54:44.146Z,39.20
2018-01-12T20:57:11.600Z,37.85
2018-01-12T20:59:39.801Z,38.55
2018-01-12T21:02:07.249Z,38.10
2018-01-12T21:04:34.774Z,38.45
2018-01-12T21:07:02.210Z,35.55
2018-01-12T21:09:29.757Z,35.88
2018-01-12T21:11:57.342Z,37.80
2018-01-12T21:14:25.563Z,38.00
2018-01-12T21:16:53.291Z,39.00
2018-01-12T21:19:22.241Z,36.88
2018-01-12T21:21:49.662Z,38.88
2018-01-12T21:24:17.106Z,36.88
2018-01-12T21:26:44.537Z,38.13
2018-01-12T21:29:12.075Z,43.05
2018-01-12T21:31:39.546Z,39.33
2018-01-12T21:34:06.977Z,40.40
2018-01-12T21:36:34.426Z,39.33
2018-01-12T21:39:01.865Z,38.90
2018-01-12T21:41:29.327Z,42.70
2018-01-12T21:43:56.761Z,35.42
2018-01-12T21:46:24.348Z,36.38
2018-01-12T21:48:51.798Z,38.42
2018-01-12T21:51:19.290Z,34.78
2018-01-12T21:53:46.812Z,36.30
2018-01-12T21:56:14.289Z,38.80
2018-01-12T21:58:41.721Z,37.42
2018-01-12T22:01:09.303Z,40.25
2018-01-12T22:03:36.760Z,34.97
2018-01-12T22:06:04.381Z,33.80
2018-01-12T22:08:31.824Z,34.63
2018-01-12T22:11:00.028Z,39.10
2018-01-12T22:13:28.419Z,38.38
2018-01-12T22:15:56.926Z,39.67
2018-01-12T22:18:24.306Z,35.55
2018-01-12T22:20:52.509Z,38.65
2018-01-12T22:23:19.994Z,37.58
2018-01-12T22:25:47.463Z,36.08
2018-01-12T22:28:14.889Z,36.45
2018-01-12T22:30:42.357Z,35.63
2018-01-12T22:33:09.789Z,36.55
2018-01-12T22:35:37.260Z,39.88
2018-01-12T22:38:04.697Z,35.78
2018-01-12T22:40:32.186Z,34.85
2018-01-12T22:42:59.610Z,35.10
2018-01-12T22:45:27.093Z,34.90
2018-01-12T22:47:54.568Z,35.80
2018-01-12T22:50:22.067Z,35.15
2018-01-12T22:52:50.289Z,34.80
2018-01-12T22:55:17.846Z,36.40
2018-01-12T22:57:45.294Z,37.05
2018-01-12T23:00:13.514Z,37.42
2018-01-12T23:02:41.749Z,37.03
2018-01-12T23:05:09.192Z,35.80
2018-01-12T23:07:36.647Z,38.78
2018-01-12T23:10:04.085Z,35.95
2018-01-12T23:12:31.528Z,36.95
2018-01-12T23:14:59.773Z,33.28
2018-01-12T23:17:27.187Z,35.05
2018-01-12T23:19:54.628Z,36.30
2018-01-12T23:22:22.845Z,34.28
2018-01-12T23:24:50.273Z,33.72
2018-01-12T23:27:17.717Z,33.25
2018-01-12T23:29:45.921Z,34.72
2018-01-12T23:32:13.385Z,35.55
2018-01-12T23:34:40.829Z,35.80
2018-01-12T23:37:08.258Z,35.10
2018-01-12T23:39:35.705Z,32.20
2018-01-12T23:42:03.930Z,35.85
2018-01-12T23:44:31.366Z,35.58
2018-01-12T23:46:58.806Z,34.67
2018-01-12T23:49:26.264Z,35.58
2018-01-12T23:51:53.700Z,36.65
2018-01-12T23:54:21.901Z,34.00
2018-01-12T23:56:49.358Z,37.67
2018-01-12T23:59:16.809Z,35.60
